Time;durP1;ratioP1;P1;durP2;ratioP2;P2;SDS_P1;SDS_P2;PMS_P1;PMS_P2;Temp;Humidity;BMP_temperature;BMP_pressure;BME280_temperature;BME280_humidity;BME280_pressure;Samples;Min_cycle;Max_cycle;Signal;HPM_P1;HPM_P2
2023/09/25 00:00:49;;;;;;;3.00;1.50;;;;;;;22.15;45.10;102135.06;5011176;28;20029;-71
2023/09/25 00:03:15;;;;;;;3.45;1.83;;;;;;;22.23;44.60;102134.78;4993958;28;20029;-70
2023/09/25 00:05:40;;;;;;;4.22;1.70;;;;;;;21.84;45.26;102136.22;4993656;28;20107;-71
2023/09/25 00:08:05;;;;;;;3.95;1.65;;;;;;;22.36;44.20;102145.84;4993831;28;20026;-71
2023/09/25 00:10:31;;;;;;;4.32;1.60;;;;;;;22.29;44.67;102144.31;4994096;28;20088;-71
2023/09/25 00:12:58;;;;;;;6.63;1.60;;;;;;;21.92;44.78;102146.56;5009345;28;20045;-71
2023/09/25 00:15:24;;;;;;;2.47;1.63;;;;;;;22.50;43.52;102154.16;4994209;28;20025;-70
2023/09/25 00:17:49;;;;;;;2.35;1.85;;;;;;;21.97;44.40;102139.28;4994103;28;20526;-70
2023/09/25 00:20:17;;;;;;;3.35;1.70;;;;;;;22.26;43.74;102144.44;5010659;28;20076;-70
2023/09/25 00:22:42;;;;;;;4.40;1.80;;;;;;;22.02;44.41;102147.97;4993909;28;20522;-70
2023/09/25 00:25:08;;;;;;;3.05;1.70;;;;;;;21.82;44.66;102150.50;4993714;28;20128;-70
2023/09/25 00:27:33;;;;;;;2.72;1.50;;;;;;;22.23;44.00;102144.53;4993068;28;20046;-70
2023/09/25 00:30:00;;;;;;;2.53;1.40;;;;;;;22.03;44.21;102148.84;4993391;28;20026;-70
2023/09/25 00:32:26;;;;;;;2.08;1.42;;;;;;;22.26;44.12;102144.44;5011909;28;20105;-71
2023/09/25 00:34:51;;;;;;;3.15;1.20;;;;;;;21.80;44.57;102145.25;4992864;28;20121;-70
2023/09/25 00:37:16;;;;;;;5.38;2.08;;;;;;;21.61;45.01;102144.16;5009864;28;20502;-70
2023/09/25 00:39:44;;;;;;;2.72;1.55;;;;;;;22.19;44.16;102144.66;4993556;28;20029;-69
2023/09/25 00:42:10;;;;;;;2.47;1.38;;;;;;;22.06;43.98;102143.38;5008900;28;20121;-70
2023/09/25 00:44:36;;;;;;;3.05;1.20;;;;;;;21.89;44.32;102136.03;5009710;28;20029;-70
2023/09/25 00:47:01;;;;;;;2.38;1.38;;;;;;;21.99;45.03;102141.88;4992984;28;20029;-70
2023/09/25 00:49:28;;;;;;;5.05;1.58;;;;;;;22.05;44.19;102140.78;4992635;28;20550;-70
2023/09/25 00:51:54;;;;;;;2.92;1.92;;;;;;;21.97;44.65;102141.09;4993044;28;20042;-71
2023/09/25 00:54:20;;;;;;;2.47;1.33;;;;;;;22.14;44.10;102135.97;5010113;28;20109;-70
2023/09/25 00:56:46;;;;;;;3.38;1.65;;;;;;;21.52;45.33;102132.91;5010339;28;20097;-71
2023/09/25 00:59:12;;;;;;;2.10;1.23;;;;;;;21.78;44.63;102131.13;5011064;28;20076;-70
2023/09/25 01:01:37;;;;;;;3.90;1.63;;;;;;;22.03;44.78;102132.88;5010781;28;20029;-70
2023/09/25 01:04:03;;;;;;;3.05;1.55;;;;;;;21.68;44.96;102130.59;4992165;28;20037;-70
2023/09/25 01:06:29;;;;;;;2.88;1.45;;;;;;;21.59;45.34;102133.56;5010957;28;20029;-70
2023/09/25 01:08:54;;;;;;;4.45;2.08;;;;;;;21.90;44.88;102126.25;5010035;28;20097;-70
2023/09/25 01:11:20;;;;;;;1.75;1.40;;;;;;;21.43;45.32;102122.59;4993054;28;20028;-70
2023/09/25 01:13:45;;;;;;;4.30;1.70;;;;;;;21.25;46.32;102131.22;5010769;28;20037;-70
2023/09/25 01:16:10;;;;;;;4.15;1.70;;;;;;;21.35;46.01;102124.66;4992173;28;20576;-70
2023/09/25 01:18:36;;;;;;;2.63;1.50;;;;;;;21.45;45.54;102126.06;5010688;28;20397;-70
2023/09/25 01:21:03;;;;;;;3.28;1.65;;;;;;;21.48;45.25;102128.59;4992556;28;20512;-70
2023/09/25 01:23:28;;;;;;;2.33;1.63;;;;;;;21.69;45.15;102128.78;5008404;28;20041;-71
2023/09/25 01:25:54;;;;;;;2.28;1.40;;;;;;;21.66;45.31;102126.25;5008660;28;20613;-70
2023/09/25 01:28:19;;;;;;;1.95;1.55;;;;;;;21.64;45.13;102126.31;5009301;28;20532;-70
2023/09/25 01:30:45;;;;;;;3.58;1.58;;;;;;;21.74;45.21;102126.84;5009699;28;20022;-70
2023/09/25 01:33:10;;;;;;;3.10;1.65;;;;;;;21.70;45.10;102122.53;4992198;28;20029;-70
2023/09/25 01:35:35;;;;;;;4.55;1.67;;;;;;;21.43;45.61;102121.72;4992645;28;20845;-70
2023/09/25 01:38:04;;;;;;;1.92;1.45;;;;;;;21.56;45.72;102123.06;4991735;28;20025;-70
2023/09/25 01:40:31;;;;;;;5.07;1.70;;;;;;;21.61;45.31;102120.22;5010230;28;20132;-70
2023/09/25 01:42:56;;;;;;;2.20;1.30;;;;;;;21.18;46.17;102120.78;4992239;28;20144;-70
2023/09/25 01:45:22;;;;;;;3.00;1.50;;;;;;;21.39;45.68;102120.97;4991989;28;20401;-71
2023/09/25 01:47:50;;;;;;;2.83;1.35;;;;;;;21.07;46.44;102122.94;4992176;28;20021;-70
2023/09/25 01:50:17;;;;;;;2.58;1.58;;;;;;;21.00;46.56;102108.13;4992714;28;20041;-70
2023/09/25 01:52:43;;;;;;;4.22;1.63;;;;;;;21.13;46.45;102113.88;5009785;28;20030;-70
2023/09/25 01:55:08;;;;;;;2.67;1.58;;;;;;;20.95;46.57;102104.75;5008517;28;20018;-70
2023/09/25 01:57:34;;;;;;;6.15;1.85;;;;;;;21.25;46.19;102112.59;4992250;28;20021;-71
2023/09/25 02:00:00;;;;;;;1.52;1.13;;;;;;;21.61;45.35;102114.91;5009068;28;20061;-70
2023/09/25 02:02:25;;;;;;;3.67;2.00;;;;;;;21.19;45.98;102106.56;4992216;28;20501;-70
2023/09/25 02:04:51;;;;;;;4.97;1.60;;;;;;;21.33;45.80;102105.22;4991647;28;20472;-70
2023/09/25 02:07:18;;;;;;;2.28;1.63;;;;;;;21.17;45.84;102111.06;5007790;28;20461;-70
2023/09/25 02:09:45;;;;;;;2.65;1.40;;;;;;;20.89;46.49;102110.28;4992171;28;20028;-70
2023/09/25 02:12:10;;;;;;;2.63;1.45;;;;;;;20.67;46.87;102106.47;5009324;28;20509;-70
2023/09/25 02:14:36;;;;;;;2.83;1.90;;;;;;;20.47;47.79;102116.88;5007603;28;20033;-71
2023/09/25 02:17:01;;;;;;;3.58;1.17;;;;;;;20.83;46.52;102101.56;4991899;28;20578;-70
2023/09/25 02:19:28;;;;;;;2.53;1.20;;;;;;;20.71;46.94;102096.66;5009118;28;20025;-70
2023/09/25 02:21:53;;;;;;;1.70;1.45;;;;;;;20.79;46.77;102094.63;4991724;28;20163;-71
2023/09/25 02:24:19;;;;;;;1.83;1.25;;;;;;;21.00;46.57;102086.84;4988606;28;20145;-70
2023/09/25 02:26:44;;;;;;;1.92;1.23;;;;;;;20.65;46.53;102088.88;4989277;28;20040;-70
2023/09/25 02:29:11;;;;;;;3.95;1.20;;;;;;;20.89;46.31;102084.56;4972412;28;20284;-70
2023/09/25 02:31:36;;;;;;;3.65;1.30;;;;;;;21.39;45.60;102083.75;4990099;28;20507;-70
2023/09/25 02:34:01;;;;;;;3.53;1.60;;;;;;;21.24;45.73;102073.63;4987573;28;20086;-70
2023/09/25 02:36:27;;;;;;;3.67;1.30;;;;;;;20.73;46.64;102073.59;4972588;28;20113;-70
2023/09/25 02:38:52;;;;;;;2.67;1.48;;;;;;;20.70;47.15;102067.50;4972255;28;20509;-70
2023/09/25 02:41:18;;;;;;;2.00;1.38;;;;;;;20.29;47.55;102073.19;4989547;28;20112;-70
2023/09/25 02:43:43;;;;;;;1.67;1.13;;;;;;;20.55;47.42;102072.34;4972781;28;20026;-71
2023/09/25 02:46:09;;;;;;;2.63;1.55;;;;;;;20.94;46.56;102081.75;4972036;28;20411;-70
2023/09/25 02:48:34;;;;;;;4.20;1.27;;;;;;;20.93;46.49;102074.69;4989143;28;20092;-70
2023/09/25 02:50:59;;;;;;;1.70;1.23;;;;;;;20.90;46.26;102074.81;4989562;28;20037;-70
2023/09/25 02:53:25;;;;;;;4.78;1.23;;;;;;;20.43;47.65;102086.91;4972447;28;20033;-70
2023/09/25 02:55:51;;;;;;;2.55;1.40;;;;;;;20.72;47.15;102082.47;4971531;28;20018;-70
2023/09/25 02:58:17;;;;;;;2.78;1.15;;;;;;;20.72;46.73;102077.16;4990001;28;20038;-70
2023/09/25 03:00:42;;;;;;;2.28;1.42;;;;;;;20.82;47.05;102078.56;4988408;28;20386;-70
2023/09/25 03:03:08;;;;;;;2.65;1.50;;;;;;;20.58;47.15;102074.03;4971222;28;20038;-70
2023/09/25 03:05:33;;;;;;;4.13;1.13;;;;;;;19.93;48.61;102076.91;4972577;28;20026;-70
2023/09/25 03:07:59;;;;;;;2.33;1.70;;;;;;;20.45;47.28;102069.13;4971980;28;20042;-70
2023/09/25 03:10:24;;;;;;;2.50;1.50;;;;;;;20.12;48.10;102079.03;4971653;28;20030;-70
2023/09/25 03:12:51;;;;;;;3.72;1.27;;;;;;;20.60;47.17;102074.88;4972244;28;20026;-70
2023/09/25 03:15:16;;;;;;;5.00;1.75;;;;;;;20.98;46.49;102072.78;4989750;28;20081;-70
2023/09/25 03:17:42;;;;;;;1.85;1.35;;;;;;;20.63;46.69;102082.72;4990873;28;20026;-70
2023/09/25 03:20:17;;;;;;;2.22;1.45;;;;;;;20.23;48.12;102089.31;4992968;28;20026;-70
2023/09/25 03:22:43;;;;;;;2.20;1.38;;;;;;;20.34;47.48;102089.84;4990870;28;20050;-70
2023/09/25 03:25:09;;;;;;;1.70;1.20;;;;;;;20.44;47.48;102087.75;4975266;28;20030;-70
2023/09/25 03:27:34;;;;;;;3.15;1.38;;;;;;;20.71;46.92;102080.72;4993081;28;20497;-70
2023/09/25 03:29:59;;;;;;;3.08;1.23;;;;;;;20.02;48.57;102093.47;4990761;28;20492;-70
2023/09/25 03:32:25;;;;;;;4.80;1.52;;;;;;;20.11;48.58;102080.81;4975435;28;20461;-70
2023/09/25 03:34:53;;;;;;;2.03;1.33;;;;;;;20.70;46.88;102068.34;4992825;28;20026;-70
2023/09/25 03:37:19;;;;;;;2.78;1.38;;;;;;;19.86;48.78;102074.50;4992087;28;20038;-70
2023/09/25 03:39:44;;;;;;;3.13;1.45;;;;;;;19.97;48.48;102075.91;4975370;28;20076;-70
2023/09/25 03:42:09;;;;;;;1.60;1.30;;;;;;;20.13;48.66;102078.97;4990622;28;20022;-70
2023/09/25 03:44:35;;;;;;;2.33;1.48;;;;;;;20.27;47.66;102080.34;4991889;28;20080;-70
2023/09/25 03:47:00;;;;;;;2.30;1.48;;;;;;;20.84;46.45;102081.19;4974684;28;20029;-70
2023/09/25 03:49:25;;;;;;;2.67;1.60;;;;;;;20.59;47.00;102075.78;4992359;28;20505;-70
2023/09/25 03:51:51;;;;;;;3.60;2.05;;;;;;;20.83;46.55;102080.31;4990473;28;20022;-70
2023/09/25 03:54:16;;;;;;;1.67;1.23;;;;;;;20.26;47.43;102083.91;4974973;28;20511;-70
2023/09/25 03:56:41;;;;;;;6.65;1.60;;;;;;;20.50;46.96;102082.28;4992844;28;20029;-71
2023/09/25 03:59:07;;;;;;;2.80;1.60;;;;;;;20.71;46.84;102080.72;4973652;28;20026;-70
2023/09/25 04:01:32;;;;;;;2.03;1.33;;;;;;;19.42;48.88;102086.28;4991064;28;20459;-71
2023/09/25 04:03:57;;;;;;;2.30;1.25;;;;;;;19.76;48.75;102093.28;4992116;28;20502;-70
2023/09/25 04:06:23;;;;;;;2.10;1.48;;;;;;;19.91;48.47;102096.47;4991903;28;20410;-70
2023/09/25 04:08:48;;;;;;;1.88;1.20;;;;;;;20.64;47.23;102100.41;4974890;28;20057;-70
2023/09/25 04:11:14;;;;;;;1.85;1.17;;;;;;;20.55;46.92;102100.72;4974434;28;20482;-71
2023/09/25 04:13:40;;;;;;;1.98;1.40;;;;;;;20.25;47.57;102108.69;4974045;28;20030;-71
2023/09/25 04:16:06;;;;;;;3.25;1.50;;;;;;;20.74;47.01;102104.53;4974185;28;20102;-70
2023/09/25 04:18:32;;;;;;;2.45;1.58;;;;;;;20.09;48.29;102109.16;4992475;28;20033;-71
2023/09/25 04:21:02;;;;;;;2.63;1.48;;;;;;;20.09;48.13;102106.53;4973423;28;20018;-71
2023/09/25 04:23:28;;;;;;;4.32;1.73;;;;;;;20.46;47.64;102107.19;4984883;28;20414;-71
2023/09/25 04:26:00;;;;;;;2.17;1.35;;;;;;;20.09;48.38;102109.16;4992936;28;20396;-70
2023/09/25 04:28:28;;;;;;;2.53;1.42;;;;;;;20.33;47.42;102112.00;4993877;28;20114;-70
2023/09/25 04:30:54;;;;;;;1.90;1.35;;;;;;;20.90;46.38;102106.72;5009851;28;20425;-71
2023/09/25 04:33:19;;;;;;;2.20;1.30;;;;;;;20.95;46.35;102120.69;5010470;28;20553;-71
2023/09/25 04:35:45;;;;;;;2.25;1.60;;;;;;;20.88;45.91;102108.53;4993729;28;20049;-71
2023/09/25 04:38:10;;;;;;;4.43;1.65;;;;;;;20.02;47.41;102112.94;5009586;28;20870;-71
2023/09/25 04:40:35;;;;;;;4.55;1.55;;;;;;;20.50;46.90;102115.00;4992761;28;20025;-71
2023/09/25 04:43:01;;;;;;;2.33;1.45;;;;;;;20.39;47.30;102111.81;5009331;28;20038;-71
2023/09/25 04:45:26;;;;;;;1.92;1.33;;;;;;;20.57;47.08;102113.03;4993511;28;20120;-71
2023/09/25 04:47:52;;;;;;;3.63;1.65;;;;;;;20.73;46.64;102112.56;4992407;28;20033;-71
2023/09/25 04:50:21;;;;;;;2.15;1.08;;;;;;;20.40;47.46;102118.00;5011145;28;20083;-71
2023/09/25 04:52:48;;;;;;;2.20;1.60;;;;;;;20.96;46.40;102111.78;4993415;28;20389;-70
2023/09/25 04:55:14;;;;;;;3.30;1.10;;;;;;;20.45;47.33;102122.22;5009605;28;20389;-71
2023/09/25 04:57:41;;;;;;;3.10;1.63;;;;;;;20.99;46.14;102111.69;5011028;28;20100;-71
2023/09/25 05:00:26;;;;;;;2.08;1.25;;;;;;;20.81;46.28;102110.50;4993166;28;20103;-71
2023/09/25 05:02:54;;;;;;;4.10;1.52;;;;;;;20.57;46.75;102126.31;4992055;28;20083;-70
2023/09/25 05:05:19;;;;;;;3.15;1.52;;;;;;;21.18;45.93;102118.13;4993111;28;20049;-71
2023/09/25 05:07:47;;;;;;;2.58;1.40;;;;;;;20.40;47.34;102121.53;4993018;28;20460;-71
2023/09/25 05:10:14;;;;;;;3.00;1.50;;;;;;;20.32;47.50;102126.22;4992108;28;20256;-71
2023/09/25 05:12:41;;;;;;;2.97;1.73;;;;;;;20.42;47.28;102117.03;4992868;28;20037;-71
2023/09/25 05:15:07;;;;;;;4.03;1.58;;;;;;;20.28;47.58;102129.88;4992395;28;20426;-71
2023/09/25 05:17:34;;;;;;;3.53;1.60;;;;;;;20.33;47.75;102130.56;4992784;28;20045;-71
2023/09/25 05:20:00;;;;;;;2.10;1.35;;;;;;;20.58;46.84;102127.16;4992308;28;20116;-71
2023/09/25 05:22:25;;;;;;;3.53;1.55;;;;;;;19.97;47.92;102133.41;4992104;28;20032;-73
2023/09/25 05:24:51;;;;;;;2.95;1.50;;;;;;;20.19;47.78;102136.31;5009165;28;20599;-73
2023/09/25 05:27:16;;;;;;;3.92;1.67;;;;;;;20.50;47.50;102133.59;4992866;28;20445;-71
2023/09/25 05:29:45;;;;;;;2.08;1.30;;;;;;;20.44;47.44;102131.13;5008374;28;20022;-70
2023/09/25 05:32:10;;;;;;;2.78;1.92;;;;;;;20.55;46.82;102127.25;4992221;28;20036;-70
2023/09/25 05:34:36;;;;;;;3.80;1.58;;;;;;;20.01;48.82;102137.72;4992607;28;20022;-70
2023/09/25 05:37:01;;;;;;;2.75;1.70;;;;;;;19.90;48.60;102134.50;4991846;28;20026;-70
2023/09/25 05:39:28;;;;;;;5.57;1.60;;;;;;;19.49;49.12;102137.34;4992112;28;20026;-70
2023/09/25 05:41:53;;;;;;;2.20;1.38;;;;;;;20.09;48.46;102133.06;5009810;28;20041;-70
2023/09/25 05:44:18;;;;;;;3.22;1.67;;;;;;;19.72;49.05;102143.84;4991442;28;20529;-70
2023/09/25 05:46:44;;;;;;;2.58;1.67;;;;;;;19.79;49.47;102142.75;5009989;28;20025;-70
2023/09/25 05:49:09;;;;;;;1.42;1.30;;;;;;;19.52;49.80;102139.06;5009787;28;20156;-70
2023/09/25 05:51:35;;;;;;;2.85;1.65;;;;;;;20.29;48.26;102143.09;5009493;28;20053;-70
2023/09/25 05:54:00;;;;;;;1.80;1.30;;;;;;;20.21;48.11;102144.22;4992022;28;20367;-70
2023/09/25 05:56:28;;;;;;;3.85;1.98;;;;;;;19.62;49.37;102138.78;4992246;28;20052;-70
2023/09/25 05:58:53;;;;;;;2.97;1.58;;;;;;;20.20;48.13;102138.06;4991243;28;20502;-73
2023/09/25 06:01:19;;;;;;;6.38;1.60;;;;;;;19.31;50.48;102141.38;4992205;28;20117;-72
2023/09/25 06:03:44;;;;;;;3.08;1.70;;;;;;;20.31;47.70;102145.69;4992438;28;20018;-73
2023/09/25 06:06:09;;;;;;;5.03;1.85;;;;;;;20.01;48.24;102137.72;5008681;28;20302;-73
2023/09/25 06:08:35;;;;;;;2.10;1.25;;;;;;;20.33;47.74;102139.44;5009981;28;20425;-72
2023/09/25 06:11:04;;;;;;;2.28;1.38;;;;;;;20.62;47.43;102145.63;4991628;28;20032;-72
2023/09/25 06:13:30;;;;;;;1.88;1.25;;;;;;;20.19;48.26;102152.22;4991122;28;20068;-72
2023/09/25 06:15:56;;;;;;;2.25;1.17;;;;;;;19.92;48.81;102161.84;4991747;28;20014;-72
2023/09/25 06:18:22;;;;;;;5.22;1.23;;;;;;;20.49;47.30;102150.44;5009801;28;20053;-72
2023/09/25 06:20:48;;;;;;;2.53;1.17;;;;;;;20.35;47.78;102157.97;4991132;28;20123;-72
2023/09/25 06:23:15;;;;;;;5.38;1.70;;;;;;;20.40;48.15;102153.41;5009260;28;20469;-72
2023/09/25 06:25:42;;;;;;;3.35;1.58;;;;;;;19.78;49.05;102149.84;4991088;28;20034;-72
2023/09/25 06:28:08;;;;;;;1.98;1.38;;;;;;;20.90;46.88;102144.75;4991685;28;20033;-72
2023/09/25 06:30:34;;;;;;;1.85;1.25;;;;;;;20.08;49.05;102144.59;4992072;28;20018;-72
2023/09/25 06:32:59;;;;;;;3.55;1.30;;;;;;;20.61;47.62;102148.34;5007064;28;20089;-72
2023/09/25 06:35:25;;;;;;;5.70;1.75;;;;;;;21.37;46.53;102144.06;5009882;28;20088;-72
2023/09/25 06:37:51;;;;;;;2.03;1.27;;;;;;;20.95;47.28;102141.94;4991702;28;20030;-72
2023/09/25 06:40:19;;;;;;;1.83;1.48;;;;;;;20.71;47.14;102149.78;5007523;28;20084;-72
2023/09/25 06:42:44;;;;;;;3.83;1.40;;;;;;;21.18;46.59;102144.72;4991941;28;20057;-72
2023/09/25 06:45:10;;;;;;;2.97;1.60;;;;;;;20.51;47.37;102151.28;5007905;28;20741;-72
2023/09/25 06:47:36;;;;;;;3.20;1.20;;;;;;;20.41;48.02;102156.91;4991105;28;20032;-72
2023/09/25 06:50:03;;;;;;;1.45;1.20;;;;;;;21.35;46.17;102151.25;4991623;28;20033;-72
2023/09/25 06:52:28;;;;;;;1.58;1.00;;;;;;;21.93;45.18;102152.78;5012415;28;20033;-72
2023/09/25 06:54:55;;;;;;;1.05;0.98;;;;;;;21.34;46.05;102160.16;5012163;28;20030;-72
2023/09/25 06:57:20;;;;;;;4.53;1.58;;;;;;;21.82;44.90;102151.38;4995045;28;20033;-72
2023/09/25 06:59:45;;;;;;;4.38;1.38;;;;;;;22.21;44.46;102155.25;4995768;28;20332;-72
2023/09/25 07:02:11;;;;;;;1.25;1.00;;;;;;;22.56;43.77;102176.16;4994432;28;20475;-72
2023/09/25 07:04:37;;;;;;;3.63;1.23;;;;;;;22.07;44.40;102177.06;5011724;28;20113;-70
2023/09/25 07:07:02;;;;;;;2.03;1.08;;;;;;;21.89;44.69;102167.97;4994678;28;20312;-70
2023/09/25 07:09:28;;;;;;;2.42;1.20;;;;;;;22.11;44.75;102167.19;5011109;28;20056;-70
2023/09/25 07:11:53;;;;;;;2.80;1.23;;;;;;;22.06;44.72;102180.66;5011093;28;20057;-69
2023/09/25 07:14:19;;;;;;;1.63;1.02;;;;;;;21.73;45.82;102178.31;4995167;28;20484;-72
2023/09/25 07:16:44;;;;;;;2.88;1.50;;;;;;;21.48;45.93;102179.13;5012390;28;20089;-72
2023/09/25 07:19:10;;;;;;;4.25;1.38;;;;;;;21.34;46.07;102181.41;5012131;28;20034;-72
2023/09/25 07:21:36;;;;;;;2.47;1.50;;;;;;;21.97;45.66;102181.88;5012980;28;20022;-72
2023/09/25 07:24:02;;;;;;;2.90;1.25;;;;;;;22.96;44.02;102177.22;5011428;28;20525;-72
2023/09/25 07:26:27;;;;;;;2.33;1.30;;;;;;;22.48;44.09;102166.66;4994881;28;20115;-72
2023/09/25 07:28:52;;;;;;;1.75;1.20;;;;;;;22.62;44.18;102162.59;5011506;28;20494;-72
2023/09/25 07:31:19;;;;;;;1.95;1.10;;;;;;;22.62;43.91;102167.94;5012787;28;20112;-72
2023/09/25 07:33:45;;;;;;;4.93;1.60;;;;;;;22.31;44.87;102163.75;5012571;28;20096;-72
2023/09/25 07:36:11;;;;;;;4.55;1.45;;;;;;;22.83;44.04;102156.41;5010116;28;20742;-72
2023/09/25 07:38:36;;;;;;;4.32;1.60;;;;;;;22.70;43.72;102155.16;5012564;28;20030;-72
2023/09/25 07:41:02;;;;;;;2.35;1.27;;;;;;;22.47;44.56;102154.28;4994446;28;20032;-72
2023/09/25 07:43:29;;;;;;;3.40;1.73;;;;;;;22.79;43.82;102160.13;4994099;28;20029;-72
2023/09/25 07:45:55;;;;;;;2.20;1.23;;;;;;;23.54;42.64;102142.75;4994075;28;20108;-72
2023/09/25 07:48:20;;;;;;;4.45;1.20;;;;;;;23.81;41.48;102155.81;5012350;28;20022;-72
2023/09/25 07:50:46;;;;;;;2.33;1.38;;;;;;;23.32;43.34;102147.31;5010486;28;20546;-72
2023/09/25 07:53:13;;;;;;;1.80;1.20;;;;;;;23.55;42.33;102141.81;4993850;28;20021;-72
2023/09/25 07:55:38;;;;;;;1.98;1.27;;;;;;;23.80;42.13;102142.53;5012109;28;20033;-72
2023/09/25 07:58:04;;;;;;;3.28;1.20;;;;;;;22.80;43.34;102145.00;4993348;28;20022;-71
2023/09/25 08:00:37;;;;;;;3.80;1.60;;;;;;;23.03;42.96;102141.38;5012524;28;20022;-72
2023/09/25 08:03:05;;;;;;;1.85;1.20;;;;;;;23.08;43.73;102143.84;4993264;28;20117;-71
2023/09/25 08:05:31;;;;;;;2.88;1.13;;;;;;;23.58;42.80;102139.97;4993750;28;20026;-71
2023/09/25 08:07:56;;;;;;;1.98;1.02;;;;;;;23.81;42.25;102139.78;4994029;28;20037;-72
2023/09/25 08:10:21;;;;;;;3.60;1.58;;;;;;;23.16;43.13;102134.63;5011609;28;20049;-72
2023/09/25 08:12:47;;;;;;;3.25;1.55;;;;;;;22.97;43.47;102147.84;4993583;28;20425;-71
2023/09/25 08:15:13;;;;;;;2.50;1.10;;;;;;;23.62;42.48;102146.91;5009936;28;20068;-72
2023/09/25 08:17:43;;;;;;;2.00;1.23;;;;;;;24.07;42.22;102145.78;5010457;28;20026;-72
2023/09/25 08:20:20;;;;;;;2.10;1.00;;;;;;;23.48;42.68;102136.81;4993204;28;20029;-72
2023/09/25 08:22:47;;;;;;;1.02;0.90;;;;;;;24.19;41.29;102144.31;4990470;28;20113;-70
2023/09/25 08:25:13;;;;;;;1.75;1.00;;;;;;;23.88;41.95;102143.94;4990832;28;20018;-70
2023/09/25 08:27:39;;;;;;;5.78;1.20;;;;;;;23.66;42.18;102145.84;4992003;28;20430;-70
2023/09/25 08:30:06;;;;;;;2.28;1.13;;;;;;;23.98;42.00;102148.88;4991496;28;20024;-70
2023/09/25 08:32:32;;;;;;;2.55;1.27;;;;;;;23.59;42.51;102155.03;4991283;28;20027;-69
2023/09/25 08:35:02;;;;;;;2.40;1.38;;;;;;;24.22;41.15;102161.09;4991094;28;20033;-70
2023/09/25 08:37:27;;;;;;;1.50;0.85;;;;;;;24.80;40.48;102161.03;4991755;28;20485;-70
2023/09/25 08:39:53;;;;;;;2.38;1.33;;;;;;;25.11;39.77;102155.03;4973146;28;20030;-70
2023/09/25 08:42:23;;;;;;;2.40;1.27;;;;;;;24.79;40.53;102168.22;4974191;28;20349;-70
2023/09/25 08:44:52;;;;;;;3.92;1.25;;;;;;;24.37;40.86;102174.66;4973966;28;20080;-69
2023/09/25 08:47:19;;;;;;;2.30;1.00;;;;;;;24.13;41.25;102177.53;4989573;28;20057;-70
2023/09/25 08:49:48;;;;;;;2.05;1.20;;;;;;;25.10;40.21;102180.06;4973945;28;20026;-70
2023/09/25 08:52:13;;;;;;;1.92;1.00;;;;;;;25.09;40.18;102188.13;4991009;28;20026;-70
2023/09/25 08:54:39;;;;;;;4.03;0.93;;;;;;;24.14;41.20;102189.97;4973191;28;20041;-70
2023/09/25 08:57:05;;;;;;;4.70;1.13;;;;;;;24.08;41.43;102192.03;4973365;28;20019;-70
2023/09/25 08:59:31;;;;;;;2.00;1.02;;;;;;;25.19;39.29;102179.56;4991641;28;20037;-70
2023/09/25 09:01:57;;;;;;;2.63;1.05;;;;;;;24.22;40.26;102182.47;4972642;28;20026;-70
2023/09/25 09:04:23;;;;;;;2.35;1.40;;;;;;;23.52;41.85;102191.78;4991400;28;20042;-70
2023/09/25 09:06:49;;;;;;;2.40;1.17;;;;;;;24.28;40.78;102188.47;4990999;28;20022;-70
2023/09/25 09:09:15;;;;;;;1.85;1.02;;;;;;;24.14;41.42;102181.06;4990120;28;20033;-70
2023/09/25 09:11:51;;;;;;;3.55;1.45;;;;;;;23.61;42.56;102183.38;4989694;28;20022;-70
2023/09/25 09:14:46;;;;;;;1.75;1.15;;;;;;;25.14;40.43;102175.41;4972457;28;20030;-71
2023/09/25 09:17:12;;;;;;;4.22;1.90;;;;;;;24.24;40.46;102184.19;4960476;28;20185;-70
2023/09/25 09:19:57;;;;;;;2.15;1.30;;;;;;;25.10;40.00;102185.41;4989449;28;20448;-70
2023/09/25 09:22:23;;;;;;;4.75;1.23;;;;;;;24.11;41.57;102183.88;4973957;28;20048;-70
2023/09/25 09:24:53;;;;;;;3.63;1.35;;;;;;;24.21;41.95;102175.38;5009280;28;20453;-70
2023/09/25 09:27:20;;;;;;;4.82;1.20;;;;;;;24.76;40.96;102181.72;4992574;28;20022;-70
2023/09/25 09:29:47;;;;;;;3.13;1.30;;;;;;;24.77;39.90;102188.81;5009522;28;20029;-70
2023/09/25 09:32:14;;;;;;;3.40;1.17;;;;;;;25.37;39.21;102182.28;5010105;28;20041;-70
2023/09/25 09:34:40;;;;;;;3.25;1.27;;;;;;;24.54;40.70;102187.22;4992777;28;20021;-70
2023/09/25 09:37:09;;;;;;;2.13;1.10;;;;;;;25.91;38.77;102180.34;4991664;28;20060;-71
2023/09/25 09:39:36;;;;;;;3.00;1.45;;;;;;;26.94;37.73;102182.75;4992796;28;20062;-71
2023/09/25 09:42:05;;;;;;;2.47;1.33;;;;;;;25.07;39.94;102196.25;4991910;28;20329;-70
2023/09/25 09:44:35;;;;;;;2.33;1.30;;;;;;;25.95;38.74;102177.50;5009648;28;20030;-70
2023/09/25 09:47:03;;;;;;;3.55;1.20;;;;;;;25.73;39.50;102178.63;4992020;28;20034;-70
2023/09/25 09:49:32;;;;;;;2.60;1.15;;;;;;;24.95;40.57;102186.16;4991670;28;20029;-70
2023/09/25 09:52:00;;;;;;;2.35;1.20;;;;;;;25.63;39.03;102180.94;4991721;28;20390;-70
2023/09/25 09:54:29;;;;;;;1.88;1.30;;;;;;;24.87;40.34;102190.09;5009935;28;20022;-70
2023/09/25 09:56:59;;;;;;;2.35;1.50;;;;;;;25.73;39.51;102178.63;4991070;28;20022;-70
2023/09/25 09:59:25;;;;;;;4.40;1.25;;;;;;;25.77;38.57;102174.84;5008905;28;20026;-70
2023/09/25 10:01:53;;;;;;;5.15;1.42;;;;;;;25.46;39.76;102181.84;4992099;28;20449;-71
2023/09/25 10:04:20;;;;;;;2.65;1.10;;;;;;;25.68;39.20;102191.44;4991588;28;20025;-70
2023/09/25 10:06:51;;;;;;;3.72;1.40;;;;;;;27.06;37.84;102177.53;5009863;28;20028;-70
2023/09/25 10:09:18;;;;;;;2.67;1.27;;;;;;;26.96;37.79;102176.34;4992276;28;20091;-71
2023/09/25 10:11:46;;;;;;;5.20;1.55;;;;;;;26.49;38.51;102187.94;4991645;28;20075;-70
2023/09/25 10:14:12;;;;;;;2.20;1.50;;;;;;;26.78;38.15;102183.66;4991623;28;20381;-71
2023/09/25 10:17:00;;;;;;;1.98;1.52;;;;;;;26.28;38.54;102192.69;5009831;28;20490;-71
2023/09/25 10:19:40;;;;;;;3.17;1.40;;;;;;;27.54;37.26;102188.13;4991433;28;20057;-71
2023/09/25 10:22:21;;;;;;;4.25;1.63;;;;;;;26.37;38.04;102194.88;5009142;28;20029;-70
2023/09/25 10:24:58;;;;;;;1.95;1.27;;;;;;;27.22;38.01;102188.22;5007778;28;20041;-70
2023/09/25 10:27:24;;;;;;;2.22;1.20;;;;;;;26.41;38.84;102183.88;5012515;28;20034;-70
2023/09/25 10:30:11;;;;;;;6.40;1.50;;;;;;;27.51;37.72;102188.34;4996010;28;20116;-70
2023/09/25 10:32:51;;;;;;;3.00;1.52;;;;;;;26.84;38.59;102194.00;4995048;28;20033;-71
2023/09/25 10:35:38;;;;;;;3.53;1.10;;;;;;;28.05;36.59;102187.72;5013789;28;20041;-71
2023/09/25 10:38:13;;;;;;;5.50;1.98;;;;;;;25.57;39.63;102195.50;5013310;28;20045;-70
2023/09/25 10:40:42;;;;;;;3.50;1.92;;;;;;;27.32;37.72;102187.69;5012928;28;20057;-70
2023/09/25 10:43:08;;;;;;;4.43;1.40;;;;;;;27.70;36.68;102190.75;4995269;28;20079;-70
2023/09/25 10:45:35;;;;;;;4.35;1.10;;;;;;;28.51;35.68;102189.28;4995955;28;20026;-71
2023/09/25 10:48:01;;;;;;;3.83;1.55;;;;;;;28.02;36.27;102193.28;4994509;28;20021;-71
2023/09/25 10:50:26;;;;;;;6.20;1.92;;;;;;;26.97;38.61;102193.31;4995590;28;20079;-71
2023/09/25 10:52:52;;;;;;;5.03;1.55;;;;;;;27.73;36.90;102197.75;5012041;28;20037;-71
2023/09/25 10:55:17;;;;;;;2.85;1.15;;;;;;;27.20;38.36;102203.56;5013494;28;20060;-70
2023/09/25 10:57:44;;;;;;;5.82;1.75;;;;;;;27.31;38.11;102194.84;4995634;28;20386;-70
2023/09/25 11:00:15;;;;;;;7.93;1.92;;;;;;;26.39;38.48;102195.63;4994418;28;20018;-70
2023/09/25 11:02:41;;;;;;;1.92;1.25;;;;;;;26.69;38.84;102200.22;4995314;28;20045;-71
2023/09/25 11:05:08;;;;;;;4.30;1.80;;;;;;;26.58;39.31;102198.16;4995037;28;20025;-71
2023/09/25 11:07:36;;;;;;;2.97;1.60;;;;;;;27.83;37.33;102196.22;4994641;28;20084;-70
2023/09/25 11:10:02;;;;;;;4.93;1.30;;;;;;;27.86;37.94;102197.84;5011255;28;20511;-71
2023/09/25 11:12:29;;;;;;;4.97;1.50;;;;;;;27.28;38.68;102218.34;4995633;28;20585;-71
2023/09/25 11:14:54;;;;;;;4.18;1.80;;;;;;;27.24;37.84;102213.16;5012258;28;20050;-70
2023/09/25 11:17:20;;;;;;;2.75;1.50;;;;;;;27.87;37.45;102197.75;5011426;28;20064;-71
2023/09/25 11:19:46;;;;;;;2.63;1.65;;;;;;;26.52;39.41;102207.41;4995190;28;20025;-70
2023/09/25 11:22:11;;;;;;;2.42;1.33;;;;;;;27.56;38.33;102202.34;4994255;28;20363;-70